AirNav   Air Wisconsin pilot careers
 
 294 users online  

16OK Entz Arts Airport
Hydro, Oklahoma, USA

GOING TO HYDRO?


FAA INFORMATION EFFECTIVE 12 SEPTEMBER 2019

Location

FAA Identifier: 16OK
Lat/Long: 35-26-59.6800N 098-35-10.3700W
35-26.994667N 098-35.172833W
35.4499111,-98.5862139
(estimated)
Elevation: 1688 ft. / 515 m (estimated)
From city: 6 miles S of HYDRO, OK
Time zone: UTC -5 (UTC -6 during Standard Time)
Zip code: 73048

Airport Operations

Airport use: Private use. Permission required prior to landing
Activation date: 04/2017
Control tower: no
ARTCC: FORT WORTH CENTER
FSS: MC ALESTER FLIGHT SERVICE STATION
Attendance: UNATNDD
Segmented circle: no

Airport Communications

WX AWOS-3 at OJA (7 nm NW): 118.575 (580-772-7020)
WX AWOS-3 at CLK (18 nm W): 119.225 (580-323-8477)

Nearby radio navigation aids

VOR radial/distance  VOR name  Freq  Var
BFVr062/32.9BURNS FLAT VORTAC110.0005E
IFIr224/35.5KINGFISHER VORTAC114.7009E

Airport Services

Runway Information

Runway 9/27

Dimensions: 1000 x 40 ft. / 305 x 12 m
Surface: turf
RUNWAY 9  RUNWAY 27
Traffic pattern: leftleft

Airport Ownership and Management from official FAA records

Ownership: Privately-owned
Owner: ROGER ENTZ
4122 CS 2500
HYDRO, OK 73048
Phone 405-542-7306
Manager: ALLEN ENTZ
2104 OLD 66 RD.
HYDRO, OK 73048
Phone 405-629-9650

Additional Remarks

FOR CD CTC FORT WORTH ARTCC AT 817-858-7584.

Instrument Procedures

There are no published instrument procedures at 16OK.

Some nearby airports with instrument procedures:

KOJA - Thomas P Stafford Airport (7 nm NW)
2O8 - Hinton Municipal Airport (12 nm E)
KCLK - Clinton Regional Airport (18 nm W)
1O4 - Thomas Municipal Airport (18 nm N)
KJWG - Watonga Regional Airport (26 nm N)
 
Loc | Ops | Rwys | IFR | FBO | Links
Com | Nav | Svcs | Stats | Notes

AirBoss

 
Aerial photo
No photo
 
Airport distance calculator
Flying to Entz Arts Airport? Find the distance to fly.

From to 16OK

Sunrise and sunset
Times for 17-Sep-2019
 Local
(UTC-5)
 Zulu
(UTC)
Morning civil twilight06:5411:54
Sunrise07:2012:20
Sunset19:3800:38
Evening civil twilight20:0401:04

Current date and time
Zulu (UTC)  17-Sep-2019 09:26:53
Local (UTC-5)  17-Sep-2019 04:26:53
 
METAR
KOJA 
7nm NW 
170915Z AUTO 17004KT 10SM CLR 23/18 A3001 RMK AO2
KCLK 
18nm W 
170915Z AUTO 16005KT 10SM CLR 21/17 A3002 RMK AO2
TAF
KCSM 
31nm W 
170520Z 1706/1806 16010KT P6SM SCT250 FM171500 18014G20KT P6SM SCT250
NOTAMs
Click for the latest NOTAMs
NOTAMs are issued by the DoD/FAA and will open in a separate window not controlled by AirNav.

 

 
 

Would you like to see your business listed on this page?

 If your business provides an interesting product or service to pilots, flight crews, aircraft, or users of the Entz Arts Airport, you should consider listing it here.  To start the listing process, click on the button below
 
Add a business
 

Other Pages about Entz Arts Airport

Update a link
 
Copyright © AirNav, LLC. All rights reserved. Privacy Policy  Contact